sensor_id;sensor_type;location;lat;lon;timestamp;P1;durP1;ratioP1;P2;durP2;ratioP2
1414;SDS011;702;49.466;11.086;2023-06-22T00:01:45;10.37;;;7.00;;
1414;SDS011;702;49.466;11.086;2023-06-22T00:04:12;9.63;;;6.70;;
1414;SDS011;702;49.466;11.086;2023-06-22T00:06:39;6.83;;;6.17;;
1414;SDS011;702;49.466;11.086;2023-06-22T00:09:08;7.00;;;6.30;;
1414;SDS011;702;49.466;11.086;2023-06-22T00:11:35;8.50;;;6.47;;
1414;SDS011;702;49.466;11.086;2023-06-22T00:14:02;7.47;;;6.00;;
1414;SDS011;702;49.466;11.086;2023-06-22T00:16:30;7.90;;;5.87;;
1414;SDS011;702;49.466;11.086;2023-06-22T00:18:59;6.40;;;5.80;;
1414;SDS011;702;49.466;11.086;2023-06-22T00:21:27;8.73;;;6.10;;
1414;SDS011;702;49.466;11.086;2023-06-22T00:23:54;6.70;;;5.93;;
1414;SDS011;702;49.466;11.086;2023-06-22T00:26:24;9.30;;;6.27;;
1414;SDS011;702;49.466;11.086;2023-06-22T00:28:51;6.60;;;5.70;;
1414;SDS011;702;49.466;11.086;2023-06-22T00:31:18;6.77;;;5.20;;
1414;SDS011;702;49.466;11.086;2023-06-22T00:33:45;6.23;;;5.40;;
1414;SDS011;702;49.466;11.086;2023-06-22T00:36:12;7.60;;;6.30;;
1414;SDS011;702;49.466;11.086;2023-06-22T00:38:41;5.40;;;4.80;;
1414;SDS011;702;49.466;11.086;2023-06-22T00:41:08;6.43;;;5.70;;
1414;SDS011;702;49.466;11.086;2023-06-22T00:43:37;5.77;;;5.20;;
1414;SDS011;702;49.466;11.086;2023-06-22T00:46:07;6.70;;;6.10;;
1414;SDS011;702;49.466;11.086;2023-06-22T00:48:34;6.60;;;5.90;;
1414;SDS011;702;49.466;11.086;2023-06-22T00:51:02;8.60;;;6.30;;
1414;SDS011;702;49.466;11.086;2023-06-22T00:53:30;6.97;;;6.33;;
1414;SDS011;702;49.466;11.086;2023-06-22T00:56:00;6.73;;;5.90;;
1414;SDS011;702;49.466;11.086;2023-06-22T00:58:28;5.63;;;5.00;;
1414;SDS011;702;49.466;11.086;2023-06-22T01:00:58;7.50;;;6.13;;
1414;SDS011;702;49.466;11.086;2023-06-22T01:03:25;5.83;;;5.03;;
1414;SDS011;702;49.466;11.086;2023-06-22T01:05:53;6.83;;;6.10;;
1414;SDS011;702;49.466;11.086;2023-06-22T01:08:35;7.67;;;6.13;;
1414;SDS011;702;49.466;11.086;2023-06-22T01:11:12;7.70;;;5.93;;
1414;SDS011;702;49.466;11.086;2023-06-22T01:13:48;6.37;;;5.77;;
1414;SDS011;702;49.466;11.086;2023-06-22T01:16:25;7.00;;;5.57;;
1414;SDS011;702;49.466;11.086;2023-06-22T01:18:57;7.33;;;6.17;;
1414;SDS011;702;49.466;11.086;2023-06-22T01:21:36;6.20;;;5.60;;
1414;SDS011;702;49.466;11.086;2023-06-22T01:24:08;6.40;;;5.80;;
1414;SDS011;702;49.466;11.086;2023-06-22T01:26:47;6.70;;;5.60;;
1414;SDS011;702;49.466;11.086;2023-06-22T01:29:27;7.90;;;5.80;;
1414;SDS011;702;49.466;11.086;2023-06-22T01:31:57;6.73;;;6.00;;
1414;SDS011;702;49.466;11.086;2023-06-22T01:34:27;6.10;;;5.50;;
1414;SDS011;702;49.466;11.086;2023-06-22T01:36:55;6.73;;;5.40;;
1414;SDS011;702;49.466;11.086;2023-06-22T01:39:25;8.70;;;7.30;;
1414;SDS011;702;49.466;11.086;2023-06-22T01:41:53;6.60;;;5.73;;
1414;SDS011;702;49.466;11.086;2023-06-22T01:44:21;7.80;;;6.10;;
1414;SDS011;702;49.466;11.086;2023-06-22T01:46:51;6.03;;;5.43;;
1414;SDS011;702;49.466;11.086;2023-06-22T01:49:19;5.70;;;5.07;;
1414;SDS011;702;49.466;11.086;2023-06-22T01:51:46;5.97;;;5.47;;
1414;SDS011;702;49.466;11.086;2023-06-22T01:54:13;7.07;;;5.80;;
1414;SDS011;702;49.466;11.086;2023-06-22T01:56:41;6.87;;;6.17;;
1414;SDS011;702;49.466;11.086;2023-06-22T01:59:09;6.40;;;5.53;;
1414;SDS011;702;49.466;11.086;2023-06-22T02:01:42;5.93;;;5.43;;
1414;SDS011;702;49.466;11.086;2023-06-22T02:04:19;5.83;;;5.30;;
1414;SDS011;702;49.466;11.086;2023-06-22T02:06:52;7.70;;;6.53;;
1414;SDS011;702;49.466;11.086;2023-06-22T02:09:23;6.80;;;6.03;;
1414;SDS011;702;49.466;11.086;2023-06-22T02:11:52;7.30;;;5.90;;
1414;SDS011;702;49.466;11.086;2023-06-22T02:14:22;7.57;;;6.80;;
1414;SDS011;702;49.466;11.086;2023-06-22T02:16:51;8.50;;;6.57;;
1414;SDS011;702;49.466;11.086;2023-06-22T02:19:23;9.23;;;5.80;;
1414;SDS011;702;49.466;11.086;2023-06-22T02:21:51;7.10;;;6.40;;
1414;SDS011;702;49.466;11.086;2023-06-22T02:24:18;7.30;;;6.53;;
1414;SDS011;702;49.466;11.086;2023-06-22T02:26:48;6.70;;;6.00;;
1414;SDS011;702;49.466;11.086;2023-06-22T02:29:16;6.33;;;5.53;;
1414;SDS011;702;49.466;11.086;2023-06-22T02:31:43;8.37;;;6.70;;
1414;SDS011;702;49.466;11.086;2023-06-22T02:34:11;6.57;;;5.97;;
1414;SDS011;702;49.466;11.086;2023-06-22T02:36:45;7.97;;;7.17;;
1414;SDS011;702;49.466;11.086;2023-06-22T02:39:16;6.23;;;5.73;;
1414;SDS011;702;49.466;11.086;2023-06-22T02:41:47;6.60;;;5.90;;
1414;SDS011;702;49.466;11.086;2023-06-22T02:44:14;7.30;;;6.47;;
1414;SDS011;702;49.466;11.086;2023-06-22T02:46:42;7.30;;;6.10;;
1414;SDS011;702;49.466;11.086;2023-06-22T02:49:09;9.87;;;6.80;;
1414;SDS011;702;49.466;11.086;2023-06-22T02:51:38;6.43;;;5.40;;
1414;SDS011;702;49.466;11.086;2023-06-22T02:54:13;6.67;;;6.00;;
1414;SDS011;702;49.466;11.086;2023-06-22T02:56:40;8.20;;;7.47;;
1414;SDS011;702;49.466;11.086;2023-06-22T02:59:09;9.30;;;8.10;;
1414;SDS011;702;49.466;11.086;2023-06-22T03:01:36;8.70;;;7.13;;
1414;SDS011;702;49.466;11.086;2023-06-22T03:04:05;9.40;;;7.53;;
1414;SDS011;702;49.466;11.086;2023-06-22T03:06:33;7.90;;;6.80;;
1414;SDS011;702;49.466;11.086;2023-06-22T03:09:01;8.17;;;7.37;;
1414;SDS011;702;49.466;11.086;2023-06-22T03:11:31;7.80;;;7.00;;
1414;SDS011;702;49.466;11.086;2023-06-22T03:14:00;7.93;;;7.03;;
1414;SDS011;702;49.466;11.086;2023-06-22T03:16:28;10.13;;;7.87;;
1414;SDS011;702;49.466;11.086;2023-06-22T03:18:55;8.73;;;7.60;;
1414;SDS011;702;49.466;11.086;2023-06-22T03:21:23;9.20;;;7.93;;
1414;SDS011;702;49.466;11.086;2023-06-22T03:23:51;9.57;;;8.27;;
1414;SDS011;702;49.466;11.086;2023-06-22T03:26:18;8.00;;;7.20;;
1414;SDS011;702;49.466;11.086;2023-06-22T03:28:47;8.50;;;7.60;;
1414;SDS011;702;49.466;11.086;2023-06-22T03:31:15;8.73;;;7.83;;
1414;SDS011;702;49.466;11.086;2023-06-22T03:33:46;8.00;;;7.20;;
1414;SDS011;702;49.466;11.086;2023-06-22T03:36:15;9.40;;;7.50;;
1414;SDS011;702;49.466;11.086;2023-06-22T03:38:44;9.80;;;8.20;;
1414;SDS011;702;49.466;11.086;2023-06-22T03:41:11;9.40;;;7.07;;
1414;SDS011;702;49.466;11.086;2023-06-22T03:43:38;8.87;;;7.97;;
1414;SDS011;702;49.466;11.086;2023-06-22T03:46:07;7.00;;;6.30;;
1414;SDS011;702;49.466;11.086;2023-06-22T03:48:34;7.30;;;6.30;;
1414;SDS011;702;49.466;11.086;2023-06-22T03:51:02;8.33;;;6.83;;
1414;SDS011;702;49.466;11.086;2023-06-22T03:53:29;9.53;;;8.10;;
1414;SDS011;702;49.466;11.086;2023-06-22T03:55:56;7.47;;;6.67;;
1414;SDS011;702;49.466;11.086;2023-06-22T03:58:24;8.07;;;7.07;;
1414;SDS011;702;49.466;11.086;2023-06-22T04:00:52;11.47;;;7.67;;
1414;SDS011;702;49.466;11.086;2023-06-22T04:03:21;9.30;;;7.40;;
1414;SDS011;702;49.466;11.086;2023-06-22T04:05:48;7.57;;;6.80;;
1414;SDS011;702;49.466;11.086;2023-06-22T04:08:15;7.90;;;7.10;;
1414;SDS011;702;49.466;11.086;2023-06-22T04:10:44;6.87;;;6.17;;
1414;SDS011;702;49.466;11.086;2023-06-22T04:13:11;7.23;;;6.40;;
1414;SDS011;702;49.466;11.086;2023-06-22T04:15:39;9.00;;;6.93;;
1414;SDS011;702;49.466;11.086;2023-06-22T04:18:06;7.60;;;6.90;;
1414;SDS011;702;49.466;11.086;2023-06-22T04:20:35;7.20;;;5.90;;
1414;SDS011;702;49.466;11.086;2023-06-22T04:23:02;7.70;;;6.40;;
1414;SDS011;702;49.466;11.086;2023-06-22T04:25:29;6.70;;;6.10;;
1414;SDS011;702;49.466;11.086;2023-06-22T04:27:57;8.77;;;6.07;;
1414;SDS011;702;49.466;11.086;2023-06-22T04:30:24;7.47;;;5.97;;
1414;SDS011;702;49.466;11.086;2023-06-22T04:32:51;6.37;;;5.70;;
1414;SDS011;702;49.466;11.086;2023-06-22T04:35:23;6.47;;;5.50;;
1414;SDS011;702;49.466;11.086;2023-06-22T04:37:52;7.30;;;6.03;;
1414;SDS011;702;49.466;11.086;2023-06-22T04:40:21;6.43;;;5.70;;
1414;SDS011;702;49.466;11.086;2023-06-22T04:42:48;6.87;;;5.63;;
1414;SDS011;702;49.466;11.086;2023-06-22T04:45:19;6.33;;;5.73;;
1414;SDS011;702;49.466;11.086;2023-06-22T04:47:47;7.53;;;6.40;;
1414;SDS011;702;49.466;11.086;2023-06-22T04:50:14;6.30;;;5.70;;
1414;SDS011;702;49.466;11.086;2023-06-22T04:52:42;6.20;;;5.50;;
1414;SDS011;702;49.466;11.086;2023-06-22T04:55:12;5.80;;;5.20;;
1414;SDS011;702;49.466;11.086;2023-06-22T04:57:43;6.17;;;5.60;;
1414;SDS011;702;49.466;11.086;2023-06-22T05:00:14;6.47;;;5.90;;
1414;SDS011;702;49.466;11.086;2023-06-22T05:02:43;6.23;;;5.60;;
1414;SDS011;702;49.466;11.086;2023-06-22T05:05:12;6.63;;;5.93;;
1414;SDS011;702;49.466;11.086;2023-06-22T05:07:40;7.00;;;4.73;;
1414;SDS011;702;49.466;11.086;2023-06-22T05:10:10;7.40;;;5.67;;
1414;SDS011;702;49.466;11.086;2023-06-22T05:12:39;7.00;;;6.30;;
1414;SDS011;702;49.466;11.086;2023-06-22T05:15:07;6.00;;;5.40;;
1414;SDS011;702;49.466;11.086;2023-06-22T05:17:35;6.87;;;6.07;;
1414;SDS011;702;49.466;11.086;2023-06-22T05:20:08;7.87;;;6.30;;
1414;SDS011;702;49.466;11.086;2023-06-22T05:22:36;7.20;;;5.80;;
1414;SDS011;702;49.466;11.086;2023-06-22T05:25:04;8.37;;;6.43;;
1414;SDS011;702;49.466;11.086;2023-06-22T05:27:39;10.80;;;9.00;;
1414;SDS011;702;49.466;11.086;2023-06-22T05:30:07;6.97;;;6.27;;
1414;SDS011;702;49.466;11.086;2023-06-22T05:32:43;7.40;;;6.70;;
1414;SDS011;702;49.466;11.086;2023-06-22T05:35:30;6.40;;;5.80;;
1414;SDS011;702;49.466;11.086;2023-06-22T05:37:57;7.00;;;6.30;;
1414;SDS011;702;49.466;11.086;2023-06-22T05:40:25;6.70;;;6.10;;
1414;SDS011;702;49.466;11.086;2023-06-22T05:42:53;8.47;;;6.20;;
1414;SDS011;702;49.466;11.086;2023-06-22T05:45:21;6.00;;;5.40;;
1414;SDS011;702;49.466;11.086;2023-06-22T05:47:48;6.90;;;6.30;;
1414;SDS011;702;49.466;11.086;2023-06-22T05:50:15;6.53;;;5.73;;
1414;SDS011;702;49.466;11.086;2023-06-22T05:52:42;7.83;;;6.33;;
1414;SDS011;702;49.466;11.086;2023-06-22T05:55:10;7.43;;;6.73;;
1414;SDS011;702;49.466;11.086;2023-06-22T05:57:37;7.10;;;6.50;;
1414;SDS011;702;49.466;11.086;2023-06-22T06:00:07;6.93;;;6.23;;
1414;SDS011;702;49.466;11.086;2023-06-22T06:02:37;7.53;;;6.73;;
1414;SDS011;702;49.466;11.086;2023-06-22T06:05:09;7.67;;;6.90;;
1414;SDS011;702;49.466;11.086;2023-06-22T06:07:38;7.93;;;7.20;;
1414;SDS011;702;49.466;11.086;2023-06-22T06:10:06;7.53;;;6.70;;
1414;SDS011;702;49.466;11.086;2023-06-22T06:12:34;6.90;;;6.30;;
1414;SDS011;702;49.466;11.086;2023-06-22T06:15:02;7.00;;;6.30;;
1414;SDS011;702;49.466;11.086;2023-06-22T06:17:31;6.93;;;6.33;;
1414;SDS011;702;49.466;11.086;2023-06-22T06:19:59;7.80;;;7.00;;
1414;SDS011;702;49.466;11.086;2023-06-22T06:22:30;8.10;;;7.40;;
1414;SDS011;702;49.466;11.086;2023-06-22T06:24:57;7.07;;;6.37;;
1414;SDS011;702;49.466;11.086;2023-06-22T06:27:24;7.13;;;6.43;;
1414;SDS011;702;49.466;11.086;2023-06-22T06:29:54;7.77;;;5.80;;
1414;SDS011;702;49.466;11.086;2023-06-22T06:32:22;7.43;;;6.07;;
1414;SDS011;702;49.466;11.086;2023-06-22T06:34:51;6.90;;;6.23;;
1414;SDS011;702;49.466;11.086;2023-06-22T06:37:18;6.73;;;6.13;;
1414;SDS011;702;49.466;11.086;2023-06-22T06:39:45;7.53;;;6.37;;
1414;SDS011;702;49.466;11.086;2023-06-22T06:42:13;7.07;;;6.37;;
1414;SDS011;702;49.466;11.086;2023-06-22T06:44:40;6.67;;;6.07;;
1414;SDS011;702;49.466;11.086;2023-06-22T06:47:08;6.67;;;6.07;;
1414;SDS011;702;49.466;11.086;2023-06-22T06:49:35;7.50;;;6.80;;
1414;SDS011;702;49.466;11.086;2023-06-22T06:52:04;7.80;;;7.00;;
1414;SDS011;702;49.466;11.086;2023-06-22T06:54:33;7.33;;;6.63;;
1414;SDS011;702;49.466;11.086;2023-06-22T06:57:01;6.93;;;6.30;;
1414;SDS011;702;49.466;11.086;2023-06-22T06:59:29;7.60;;;6.30;;
1414;SDS011;702;49.466;11.086;2023-06-22T07:01:56;7.77;;;7.03;;
1414;SDS011;702;49.466;11.086;2023-06-22T07:04:23;6.57;;;5.97;;
1414;SDS011;702;49.466;11.086;2023-06-22T07:06:50;7.07;;;6.23;;
1414;SDS011;702;49.466;11.086;2023-06-22T07:09:19;7.13;;;6.43;;
1414;SDS011;702;49.466;11.086;2023-06-22T07:11:46;6.33;;;5.77;;
1414;SDS011;702;49.466;11.086;2023-06-22T07:14:13;6.93;;;6.30;;
1414;SDS011;702;49.466;11.086;2023-06-22T07:16:40;6.47;;;5.90;;
1414;SDS011;702;49.466;11.086;2023-06-22T07:19:11;7.20;;;6.37;;
1414;SDS011;702;49.466;11.086;2023-06-22T07:21:38;6.73;;;6.13;;
1414;SDS011;702;49.466;11.086;2023-06-22T07:24:06;8.70;;;6.40;;
1414;SDS011;702;49.466;11.086;2023-06-22T07:26:34;8.13;;;6.07;;
1414;SDS011;702;49.466;11.086;2023-06-22T07:29:02;6.60;;;6.00;;
1414;SDS011;702;49.466;11.086;2023-06-22T07:31:29;6.70;;;6.03;;
1414;SDS011;702;49.466;11.086;2023-06-22T07:33:56;6.50;;;5.80;;
1414;SDS011;702;49.466;11.086;2023-06-22T07:36:24;6.50;;;5.90;;
1414;SDS011;702;49.466;11.086;2023-06-22T07:38:52;7.40;;;6.40;;
1414;SDS011;702;49.466;11.086;2023-06-22T07:41:20;6.37;;;5.70;;
1414;SDS011;702;49.466;11.086;2023-06-22T07:43:49;6.10;;;5.50;;
1414;SDS011;702;49.466;11.086;2023-06-22T07:46:16;6.00;;;5.50;;
1414;SDS011;702;49.466;11.086;2023-06-22T07:48:43;6.33;;;5.70;;
1414;SDS011;702;49.466;11.086;2023-06-22T07:51:11;6.23;;;5.50;;
1414;SDS011;702;49.466;11.086;2023-06-22T07:53:39;5.90;;;5.20;;
1414;SDS011;702;49.466;11.086;2023-06-22T07:56:09;6.10;;;5.40;;
1414;SDS011;702;49.466;11.086;2023-06-22T07:58:37;5.90;;;5.30;;
1414;SDS011;702;49.466;11.086;2023-06-22T08:01:05;6.03;;;5.20;;
1414;SDS011;702;49.466;11.086;2023-06-22T08:03:33;6.17;;;5.57;;
1414;SDS011;702;49.466;11.086;2023-06-22T08:06:01;5.10;;;4.70;;
1414;SDS011;702;49.466;11.086;2023-06-22T08:08:29;4.97;;;4.57;;
1414;SDS011;702;49.466;11.086;2023-06-22T08:10:56;4.87;;;4.47;;
1414;SDS011;702;49.466;11.086;2023-06-22T08:13:23;5.23;;;4.83;;
1414;SDS011;702;49.466;11.086;2023-06-22T08:15:51;6.00;;;5.07;;
1414;SDS011;702;49.466;11.086;2023-06-22T08:18:19;6.10;;;5.50;;
1414;SDS011;702;49.466;11.086;2023-06-22T08:20:46;6.73;;;6.13;;
1414;SDS011;702;49.466;11.086;2023-06-22T08:23:14;4.77;;;4.37;;
1414;SDS011;702;49.466;11.086;2023-06-22T08:25:42;4.93;;;4.10;;
1414;SDS011;702;49.466;11.086;2023-06-22T08:28:09;5.50;;;5.00;;
1414;SDS011;702;49.466;11.086;2023-06-22T08:30:36;6.47;;;5.20;;
1414;SDS011;702;49.466;11.086;2023-06-22T08:33:04;5.33;;;4.83;;
1414;SDS011;702;49.466;11.086;2023-06-22T08:35:32;5.10;;;4.70;;
1414;SDS011;702;49.466;11.086;2023-06-22T08:38:00;5.50;;;5.00;;
1414;SDS011;702;49.466;11.086;2023-06-22T08:40:27;4.93;;;4.53;;
1414;SDS011;702;49.466;11.086;2023-06-22T08:42:55;5.00;;;4.60;;
1414;SDS011;702;49.466;11.086;2023-06-22T08:45:23;5.67;;;5.20;;
1414;SDS011;702;49.466;11.086;2023-06-22T08:47:50;4.53;;;4.13;;
1414;SDS011;702;49.466;11.086;2023-06-22T08:50:17;4.30;;;3.90;;
1414;SDS011;702;49.466;11.086;2023-06-22T08:52:46;4.33;;;4.03;;
1414;SDS011;702;49.466;11.086;2023-06-22T08:55:13;4.03;;;3.63;;
1414;SDS011;702;49.466;11.086;2023-06-22T08:57:41;4.10;;;3.60;;
1414;SDS011;702;49.466;11.086;2023-06-22T09:00:09;4.50;;;3.93;;
1414;SDS011;702;49.466;11.086;2023-06-22T09:02:45;4.40;;;4.00;;
1414;SDS011;702;49.466;11.086;2023-06-22T09:05:13;4.90;;;4.20;;
1414;SDS011;702;49.466;11.086;2023-06-22T09:07:41;4.30;;;3.90;;
1414;SDS011;702;49.466;11.086;2023-06-22T09:10:10;4.43;;;3.70;;
1414;SDS011;702;49.466;11.086;2023-06-22T09:12:38;4.90;;;4.40;;
1414;SDS011;702;49.466;11.086;2023-06-22T09:15:06;4.87;;;4.37;;
1414;SDS011;702;49.466;11.086;2023-06-22T09:17:34;4.57;;;4.13;;
1414;SDS011;702;49.466;11.086;2023-06-22T09:20:02;4.90;;;4.13;;
1414;SDS011;702;49.466;11.086;2023-06-22T09:22:31;5.00;;;4.33;;
1414;SDS011;702;49.466;11.086;2023-06-22T09:24:58;4.87;;;3.87;;
1414;SDS011;702;49.466;11.086;2023-06-22T09:27:28;4.43;;;4.03;;
1414;SDS011;702;49.466;11.086;2023-06-22T09:29:56;4.60;;;4.20;;
1414;SDS011;702;49.466;11.086;2023-06-22T09:32:23;4.30;;;3.80;;
1414;SDS011;702;49.466;11.086;2023-06-22T09:34:51;6.73;;;4.20;;
1414;SDS011;702;49.466;11.086;2023-06-22T09:37:18;4.20;;;3.80;;
1414;SDS011;702;49.466;11.086;2023-06-22T09:39:45;4.50;;;3.90;;
1414;SDS011;702;49.466;11.086;2023-06-22T09:42:13;6.80;;;4.20;;
1414;SDS011;702;49.466;11.086;2023-06-22T09:44:41;5.30;;;4.50;;
1414;SDS011;702;49.466;11.086;2023-06-22T09:47:09;6.23;;;4.27;;
1414;SDS011;702;49.466;11.086;2023-06-22T09:49:36;4.90;;;4.30;;
1414;SDS011;702;49.466;11.086;2023-06-22T09:52:03;6.83;;;4.60;;
1414;SDS011;702;49.466;11.086;2023-06-22T09:54:32;4.53;;;4.13;;
1414;SDS011;702;49.466;11.086;2023-06-22T09:56:59;4.63;;;4.20;;
1414;SDS011;702;49.466;11.086;2023-06-22T09:59:27;4.50;;;3.50;;
1414;SDS011;702;49.466;11.086;2023-06-22T10:01:58;4.43;;;4.03;;
1414;SDS011;702;49.466;11.086;2023-06-22T10:04:25;4.10;;;3.80;;
1414;SDS011;702;49.466;11.086;2023-06-22T10:06:53;4.50;;;4.10;;
1414;SDS011;702;49.466;11.086;2023-06-22T10:09:23;5.70;;;3.80;;
1414;SDS011;702;49.466;11.086;2023-06-22T10:11:50;3.90;;;3.60;;
1414;SDS011;702;49.466;11.086;2023-06-22T10:14:17;5.00;;;4.43;;
1414;SDS011;702;49.466;11.086;2023-06-22T10:16:46;5.13;;;4.63;;
1414;SDS011;702;49.466;11.086;2023-06-22T10:19:15;5.30;;;4.03;;
1414;SDS011;702;49.466;11.086;2023-06-22T10:21:43;4.07;;;3.67;;
1414;SDS011;702;49.466;11.086;2023-06-22T10:24:10;4.53;;;4.13;;
1414;SDS011;702;49.466;11.086;2023-06-22T10:26:37;4.80;;;4.30;;
1414;SDS011;702;49.466;11.086;2023-06-22T10:29:04;6.30;;;4.63;;
1414;SDS011;702;49.466;11.086;2023-06-22T10:31:31;5.57;;;5.07;;
1414;SDS011;702;49.466;11.086;2023-06-22T10:33:59;5.87;;;4.03;;
1414;SDS011;702;49.466;11.086;2023-06-22T10:36:30;4.90;;;4.50;;
1414;SDS011;702;49.466;11.086;2023-06-22T10:38:58;5.23;;;3.90;;
1414;SDS011;702;49.466;11.086;2023-06-22T10:41:27;4.80;;;4.40;;
1414;SDS011;702;49.466;11.086;2023-06-22T10:43:56;6.73;;;4.30;;
1414;SDS011;702;49.466;11.086;2023-06-22T10:46:24;4.17;;;3.83;;
1414;SDS011;702;49.466;11.086;2023-06-22T10:48:57;5.03;;;4.53;;
1414;SDS011;702;49.466;11.086;2023-06-22T10:51:24;5.40;;;4.37;;
1414;SDS011;702;49.466;11.086;2023-06-22T10:53:55;7.00;;;4.37;;
1414;SDS011;702;49.466;11.086;2023-06-22T10:56:22;6.33;;;4.50;;
1414;SDS011;702;49.466;11.086;2023-06-22T10:58:49;5.53;;;4.77;;
1414;SDS011;702;49.466;11.086;2023-06-22T11:01:17;4.77;;;4.20;;
1414;SDS011;702;49.466;11.086;2023-06-22T11:03:45;5.00;;;4.37;;
1414;SDS011;702;49.466;11.086;2023-06-22T11:06:12;4.93;;;4.40;;
1414;SDS011;702;49.466;11.086;2023-06-22T11:08:43;5.00;;;4.50;;
1414;SDS011;702;49.466;11.086;2023-06-22T11:11:12;4.90;;;4.43;;
1414;SDS011;702;49.466;11.086;2023-06-22T11:13:39;4.80;;;3.70;;
1414;SDS011;702;49.466;11.086;2023-06-22T11:16:07;5.10;;;4.60;;
1414;SDS011;702;49.466;11.086;2023-06-22T11:18:34;5.00;;;4.47;;
1414;SDS011;702;49.466;11.086;2023-06-22T11:21:02;4.83;;;4.33;;
1414;SDS011;702;49.466;11.086;2023-06-22T11:23:30;5.07;;;4.40;;
1414;SDS011;702;49.466;11.086;2023-06-22T11:25:57;4.50;;;4.10;;
1414;SDS011;702;49.466;11.086;2023-06-22T11:28:26;4.93;;;4.40;;
1414;SDS011;702;49.466;11.086;2023-06-22T11:30:54;5.37;;;4.37;;
1414;SDS011;702;49.466;11.086;2023-06-22T11:33:22;6.57;;;4.50;;
1414;SDS011;702;49.466;11.086;2023-06-22T11:35:49;7.87;;;3.83;;
1414;SDS011;702;49.466;11.086;2023-06-22T11:38:16;5.20;;;4.27;;
1414;SDS011;702;49.466;11.086;2023-06-22T11:40:44;8.80;;;4.30;;
1414;SDS011;702;49.466;11.086;2023-06-22T11:43:11;4.17;;;3.87;;
1414;SDS011;702;49.466;11.086;2023-06-22T11:45:41;5.53;;;3.90;;
1414;SDS011;702;49.466;11.086;2023-06-22T11:48:09;4.80;;;4.27;;
1414;SDS011;702;49.466;11.086;2023-06-22T11:50:36;4.53;;;4.10;;
1414;SDS011;702;49.466;11.086;2023-06-22T11:53:03;5.63;;;5.07;;
1414;SDS011;702;49.466;11.086;2023-06-22T11:55:31;5.50;;;4.47;;
1414;SDS011;702;49.466;11.086;2023-06-22T11:57:58;5.43;;;4.67;;
1414;SDS011;702;49.466;11.086;2023-06-22T12:00:28;5.43;;;4.90;;
1414;SDS011;702;49.466;11.086;2023-06-22T12:02:57;4.83;;;4.33;;
1414;SDS011;702;49.466;11.086;2023-06-22T12:05:24;6.07;;;4.57;;
1414;SDS011;702;49.466;11.086;2023-06-22T12:07:52;6.27;;;4.87;;
1414;SDS011;702;49.466;11.086;2023-06-22T12:10:20;6.00;;;4.53;;
1414;SDS011;702;49.466;11.086;2023-06-22T12:12:48;4.40;;;3.90;;
1414;SDS011;702;49.466;11.086;2023-06-22T12:15:15;7.60;;;4.63;;
1414;SDS011;702;49.466;11.086;2023-06-22T12:17:43;6.30;;;4.73;;
1414;SDS011;702;49.466;11.086;2023-06-22T12:20:12;5.27;;;4.67;;
1414;SDS011;702;49.466;11.086;2023-06-22T12:22:40;6.20;;;4.60;;
1414;SDS011;702;49.466;11.086;2023-06-22T12:25:08;4.87;;;4.20;;
1414;SDS011;702;49.466;11.086;2023-06-22T12:27:36;4.60;;;4.20;;
1414;SDS011;702;49.466;11.086;2023-06-22T12:30:04;5.63;;;4.33;;
1414;SDS011;702;49.466;11.086;2023-06-22T12:32:32;5.20;;;4.43;;
1414;SDS011;702;49.466;11.086;2023-06-22T12:35:00;5.07;;;4.67;;
1414;SDS011;702;49.466;11.086;2023-06-22T12:37:32;5.70;;;4.03;;
1414;SDS011;702;49.466;11.086;2023-06-22T12:39:59;5.37;;;4.87;;
1414;SDS011;702;49.466;11.086;2023-06-22T12:42:44;5.73;;;5.00;;
1414;SDS011;702;49.466;11.086;2023-06-22T12:45:13;4.97;;;4.50;;
1414;SDS011;702;49.466;11.086;2023-06-22T12:47:41;6.00;;;4.47;;
1414;SDS011;702;49.466;11.086;2023-06-22T12:50:08;6.73;;;4.77;;
1414;SDS011;702;49.466;11.086;2023-06-22T12:52:38;4.50;;;4.20;;
1414;SDS011;702;49.466;11.086;2023-06-22T12:55:06;5.47;;;4.20;;
1414;SDS011;702;49.466;11.086;2023-06-22T12:57:34;4.73;;;3.73;;
1414;SDS011;702;49.466;11.086;2023-06-22T13:00:02;4.30;;;4.00;;
1414;SDS011;702;49.466;11.086;2023-06-22T13:02:32;5.83;;;4.20;;
1414;SDS011;702;49.466;11.086;2023-06-22T13:04:59;4.97;;;4.47;;
1414;SDS011;702;49.466;11.086;2023-06-22T13:07:30;5.33;;;4.50;;
1414;SDS011;702;49.466;11.086;2023-06-22T13:09:59;5.70;;;4.37;;
1414;SDS011;702;49.466;11.086;2023-06-22T13:12:26;4.40;;;4.00;;
1414;SDS011;702;49.466;11.086;2023-06-22T13:14:54;6.00;;;4.53;;
1414;SDS011;702;49.466;11.086;2023-06-22T13:17:24;5.50;;;4.67;;
1414;SDS011;702;49.466;11.086;2023-06-22T13:19:51;6.33;;;4.13;;
1414;SDS011;702;49.466;11.086;2023-06-22T13:22:28;4.43;;;4.03;;
1414;SDS011;702;49.466;11.086;2023-06-22T13:25:01;5.27;;;4.87;;
1414;SDS011;702;49.466;11.086;2023-06-22T13:27:28;4.30;;;3.87;;
1414;SDS011;702;49.466;11.086;2023-06-22T13:29:56;4.50;;;3.80;;
1414;SDS011;702;49.466;11.086;2023-06-22T13:32:23;5.83;;;4.47;;
1414;SDS011;702;49.466;11.086;2023-06-22T13:34:50;4.27;;;3.87;;
1414;SDS011;702;49.466;11.086;2023-06-22T13:37:19;6.60;;;4.30;;
1414;SDS011;702;49.466;11.086;2023-06-22T13:39:46;4.57;;;3.97;;
1414;SDS011;702;49.466;11.086;2023-06-22T13:42:15;5.87;;;4.40;;
1414;SDS011;702;49.466;11.086;2023-06-22T13:44:42;4.70;;;4.30;;
1414;SDS011;702;49.466;11.086;2023-06-22T13:47:10;5.07;;;4.57;;
1414;SDS011;702;49.466;11.086;2023-06-22T13:49:37;4.90;;;4.30;;
1414;SDS011;702;49.466;11.086;2023-06-22T13:52:05;4.83;;;4.43;;
1414;SDS011;702;49.466;11.086;2023-06-22T13:54:35;6.27;;;4.63;;
1414;SDS011;702;49.466;11.086;2023-06-22T13:57:05;6.30;;;4.87;;
1414;SDS011;702;49.466;11.086;2023-06-22T13:59:35;6.30;;;3.73;;
1414;SDS011;702;49.466;11.086;2023-06-22T14:02:02;5.07;;;4.10;;
1414;SDS011;702;49.466;11.086;2023-06-22T14:04:30;4.97;;;4.40;;
1414;SDS011;702;49.466;11.086;2023-06-22T14:06:58;5.30;;;4.33;;
1414;SDS011;702;49.466;11.086;2023-06-22T14:09:26;5.00;;;4.40;;
1414;SDS011;702;49.466;11.086;2023-06-22T14:11:53;4.90;;;4.50;;
1414;SDS011;702;49.466;11.086;2023-06-22T14:14:21;5.20;;;4.80;;
1414;SDS011;702;49.466;11.086;2023-06-22T14:16:50;5.47;;;4.60;;
1414;SDS011;702;49.466;11.086;2023-06-22T14:19:17;5.23;;;4.07;;
1414;SDS011;702;49.466;11.086;2023-06-22T14:21:45;5.10;;;4.70;;
1414;SDS011;702;49.466;11.086;2023-06-22T14:24:12;6.10;;;4.70;;
1414;SDS011;702;49.466;11.086;2023-06-22T14:26:39;7.10;;;4.60;;
1414;SDS011;702;49.466;11.086;2023-06-22T14:29:07;4.63;;;4.20;;
1414;SDS011;702;49.466;11.086;2023-06-22T14:31:34;12.20;;;4.63;;
1414;SDS011;702;49.466;11.086;2023-06-22T14:34:03;5.27;;;4.20;;
1414;SDS011;702;49.466;11.086;2023-06-22T14:36:31;6.80;;;4.87;;
1414;SDS011;702;49.466;11.086;2023-06-22T14:38:58;6.10;;;5.20;;
1414;SDS011;702;49.466;11.086;2023-06-22T14:41:26;6.10;;;4.77;;
1414;SDS011;702;49.466;11.086;2023-06-22T14:43:53;4.57;;;4.17;;
1414;SDS011;702;49.466;11.086;2023-06-22T14:46:20;5.97;;;4.70;;
1414;SDS011;702;49.466;11.086;2023-06-22T14:48:47;5.70;;;4.80;;
1414;SDS011;702;49.466;11.086;2023-06-22T14:51:16;4.57;;;4.17;;
1414;SDS011;702;49.466;11.086;2023-06-22T14:53:44;7.33;;;5.50;;
1414;SDS011;702;49.466;11.086;2023-06-22T14:56:12;6.70;;;4.80;;
1414;SDS011;702;49.466;11.086;2023-06-22T14:58:40;5.10;;;4.60;;
1414;SDS011;702;49.466;11.086;2023-06-22T15:01:10;7.67;;;4.83;;
1414;SDS011;702;49.466;11.086;2023-06-22T15:03:38;6.80;;;5.13;;
1414;SDS011;702;49.466;11.086;2023-06-22T15:06:05;4.67;;;4.27;;
1414;SDS011;702;49.466;11.086;2023-06-22T15:08:34;4.70;;;4.30;;
1414;SDS011;702;49.466;11.086;2023-06-22T15:11:03;4.90;;;4.50;;
1414;SDS011;702;49.466;11.086;2023-06-22T15:13:31;6.37;;;4.37;;
1414;SDS011;702;49.466;11.086;2023-06-22T15:15:59;7.50;;;4.73;;
1414;SDS011;702;49.466;11.086;2023-06-22T15:18:28;5.13;;;4.63;;
1414;SDS011;702;49.466;11.086;2023-06-22T15:20:56;4.17;;;3.77;;
1414;SDS011;702;49.466;11.086;2023-06-22T15:23:24;5.03;;;4.60;;